PWSweather.com
Personal Weather Stations
Station Observations
133525
French Quarters West Seneca , West Seneca, NY 14224

French Quarters West Seneca West Seneca, NY 14224

Lat: 42.850058, Lon: -78.799754

Elevation: 603

Station Type: Davis Vantage Vue pro2

http://westsenecaweather.com/

High Low Average
Temperature 65.2°F18.4°C 51.3°F10.7°C 57.4°F14.1°C
Dew Point 54.1°F12.3°C 47.7°F8.7°C 50.7°F10.4°C
Winds 8.1 mph 13.0 kmh Calm Calm 2.0 mph ESE3.2 kmh ESE
Wind Gusts 15.0 mph24.1 kmh -- 4.0 mph6.4 kmh
Humidity 89% 66% 78%
Pressure 30.14 in1020.7 mb 29.94 in1013.9 mb -
Precipitation 0.00 in0.0 mm - -
Hour Temp Dew Point Humidity Winds Wind Gusts Pressure Precip Precip Rate Daily Precip Total
12:00 AM 61.6°F16.4°C 49.3°F9.6°C 64% 10.4 mph E16.7 kmh E 15.0 mph24.1 kmh 29.92 in1013.2 mb - 0.00 in0.0 mm 0.00 in0.0 mm
12:10 AM 61.4°F16.3°C 48.7°F9.3°C 63% 9.2 mph E14.8 kmh E 13.8 mph22.2 kmh 29.92 in1013.2 mb - 0.00 in0.0 mm 0.00 in0.0 mm
12:15 AM 61.2°F16.2°C 48.9°F9.4°C 64% 4.6 mph ENE7.4 kmh ENE 6.9 mph11.1 kmh 29.92 in1013.2 mb - 0.00 in0.0 mm 0.00 in0.0 mm
12:20 AM 61.0°F16.1°C 48.7°F9.3°C 64% 6.9 mph E11.1 kmh E 13.8 mph22.2 kmh 29.93 in1013.5 mb - 0.00 in0.0 mm 0.00 in0.0 mm
12:25 AM 60.7°F15.9°C 48.9°F9.4°C 65% 8.1 mph E13.0 kmh E 11.5 mph18.5 kmh 29.93 in1013.5 mb - 0.00 in0.0 mm 0.00 in0.0 mm
12:30 AM 60.6°F15.9°C 48.8°F9.3°C 65% 4.6 mph E7.4 kmh E 9.2 mph14.8 kmh 29.93 in1013.5 mb - 0.00 in0.0 mm 0.00 in0.0 mm
12:35 AM 60.5°F15.8°C 48.7°F9.3°C 65% 8.1 mph E13.0 kmh E 15.0 mph24.1 kmh 29.93 in1013.5 mb - 0.00 in0.0 mm 0.00 in0.0 mm
12:40 AM 60.5°F15.8°C 48.7°F9.3°C 65% 6.9 mph ENE11.1 kmh ENE 8.1 mph13.0 kmh 29.93 in1013.5 mb - 0.00 in0.0 mm 0.00 in0.0 mm
12:45 AM 60.4°F15.8°C 48.5°F9.2°C 65% 6.9 mph ENE11.1 kmh ENE 9.2 mph14.8 kmh 29.94 in1013.9 mb - 0.00 in0.0 mm 0.00 in0.0 mm
12:50 AM 60.1°F15.6°C 48.7°F9.3°C 66% 3.5 mph ENE5.6 kmh ENE 11.5 mph18.5 kmh 29.93 in1013.5 mb - 0.00 in0.0 mm 0.00 in0.0 mm
12:55 AM 59.9°F15.5°C 48.5°F9.2°C 66% 8.1 mph ENE13.0 kmh ENE 10.4 mph16.7 kmh 29.94 in1013.9 mb - 0.00 in0.0 mm 0.00 in0.0 mm
01:00 AM 59.7°F15.4°C 48.7°F9.3°C 67% 5.8 mph E9.3 kmh E 10.4 mph16.7 kmh 29.94 in1013.9 mb - 0.00 in0.0 mm 0.00 in0.0 mm
01:10 AM 59.3°F15.2°C 48.3°F9.1°C 67% 4.6 mph ENE7.4 kmh ENE 5.8 mph9.3 kmh 29.94 in1013.9 mb - 0.00 in0.0 mm 0.00 in0.0 mm
01:15 AM 59.2°F15.1°C 48.6°F9.2°C 68% 2.3 mph ENE3.7 kmh ENE 12.7 mph20.4 kmh 29.94 in1013.9 mb - 0.00 in0.0 mm 0.00 in0.0 mm
01:20 AM 58.9°F14.9°C 48.4°F9.1°C 68% 4.6 mph ENE7.4 kmh ENE 9.2 mph14.8 kmh 29.94 in1013.9 mb - 0.00 in0.0 mm 0.00 in0.0 mm
01:25 AM 58.8°F14.9°C 48.3°F9.1°C 68% 2.3 mph ENE3.7 kmh ENE 3.5 mph5.6 kmh 29.95 in1014.2 mb - 0.00 in0.0 mm 0.00 in0.0 mm
01:30 AM 58.5°F14.7°C 48.4°F9.1°C 69% 2.3 mph ENE3.7 kmh ENE 4.6 mph7.4 kmh 29.95 in1014.2 mb - 0.00 in0.0 mm 0.00 in0.0 mm
01:35 AM 58.2°F14.6°C 48.1°F8.9°C 69% 1.2 mph E1.9 kmh E 3.5 mph5.6 kmh 29.94 in1013.9 mb - 0.00 in0.0 mm 0.00 in0.0 mm
01:40 AM 58.1°F14.5°C 48.4°F9.1°C 70% 5.8 mph ENE9.3 kmh ENE 8.1 mph13.0 kmh 29.95 in1014.2 mb - 0.00 in0.0 mm 0.00 in0.0 mm
01:45 AM 58.2°F14.6°C 48.5°F9.2°C 70% 5.8 mph E9.3 kmh E 9.2 mph14.8 kmh 29.94 in1013.9 mb - 0.00 in0.0 mm 0.00 in0.0 mm
01:50 AM 58.1°F14.5°C 48.4°F9.1°C 70% 5.8 mph ENE9.3 kmh ENE 8.1 mph13.0 kmh 29.95 in1014.2 mb - 0.00 in0.0 mm 0.00 in0.0 mm
01:55 AM 58.2°F14.6°C 48.5°F9.2°C 70% 8.1 mph ENE13.0 kmh ENE 10.4 mph16.7 kmh 29.95 in1014.2 mb - 0.00 in0.0 mm 0.00 in0.0 mm
02:00 AM 58.1°F14.5°C 48.4°F9.1°C 70% 5.8 mph NE9.3 kmh NE 10.4 mph16.7 kmh 29.95 in1014.2 mb - 0.00 in0.0 mm 0.00 in0.0 mm
02:10 AM 58.0°F14.4°C 48.6°F9.2°C 71% 4.6 mph E7.4 kmh E 8.1 mph13.0 kmh 29.94 in1013.9 mb - 0.00 in0.0 mm 0.00 in0.0 mm
02:15 AM 57.8°F14.3°C 48.5°F9.2°C 71% 4.6 mph ENE7.4 kmh ENE 4.6 mph7.4 kmh 29.95 in1014.2 mb - 0.00 in0.0 mm 0.00 in0.0 mm
02:20 AM 57.8°F14.3°C 48.5°F9.2°C 71% 2.3 mph NE3.7 kmh NE 4.6 mph7.4 kmh 29.95 in1014.2 mb - 0.00 in0.0 mm 0.00 in0.0 mm
02:25 AM 57.8°F14.3°C 48.8°F9.3°C 72% 3.5 mph NE5.6 kmh NE 5.8 mph9.3 kmh 29.95 in1014.2 mb - 0.00 in0.0 mm 0.00 in0.0 mm
02:30 AM 57.7°F14.3°C 48.7°F9.3°C 72% 2.3 mph ENE3.7 kmh ENE 3.5 mph5.6 kmh 29.95 in1014.2 mb - 0.00 in0.0 mm 0.00 in0.0 mm
02:35 AM 57.6°F14.2°C 48.6°F9.2°C 72% 3.5 mph NE5.6 kmh NE 4.6 mph7.4 kmh 29.95 in1014.2 mb - 0.00 in0.0 mm 0.00 in0.0 mm
02:40 AM 57.4°F14.1°C 48.4°F9.1°C 72% 3.5 mph E5.6 kmh E 4.6 mph7.4 kmh 29.95 in1014.2 mb - 0.00 in0.0 mm 0.00 in0.0 mm
02:45 AM 57.4°F14.1°C 48.8°F9.3°C 73% 2.3 mph ENE3.7 kmh ENE 4.6 mph7.4 kmh 29.95 in1014.2 mb - 0.00 in0.0 mm 0.00 in0.0 mm
02:50 AM 57.2°F14.0°C 48.6°F9.2°C 73% 3.5 mph ENE5.6 kmh ENE 4.6 mph7.4 kmh 29.95 in1014.2 mb - 0.00 in0.0 mm 0.00 in0.0 mm
02:55 AM 57.0°F13.9°C 48.5°F9.2°C 73% 3.5 mph NE5.6 kmh NE 3.5 mph5.6 kmh 29.95 in1014.2 mb - 0.00 in0.0 mm 0.00 in0.0 mm
03:00 AM 56.9°F13.8°C 48.7°F9.3°C 74% 1.2 mph E1.9 kmh E 4.6 mph7.4 kmh 29.95 in1014.2 mb - 0.00 in0.0 mm 0.00 in0.0 mm
03:10 AM 56.6°F13.7°C 48.8°F9.3°C 75% 3.5 mph E5.6 kmh E 3.5 mph5.6 kmh 29.95 in1014.2 mb - 0.00 in0.0 mm 0.00 in0.0 mm
03:15 AM 56.4°F13.6°C 48.6°F9.2°C 75% 1.2 mph E1.9 kmh E 3.5 mph5.6 kmh 29.95 in1014.2 mb - 0.00 in0.0 mm 0.00 in0.0 mm
03:20 AM 56.2°F13.4°C 48.4°F9.1°C 75% 1.2 mph NNE1.9 kmh NNE 3.5 mph5.6 kmh 29.95 in1014.2 mb - 0.00 in0.0 mm 0.00 in0.0 mm
03:25 AM 56.0°F13.3°C 48.5°F9.2°C 76% Calm Calm 3.5 mph5.6 kmh 29.95 in1014.2 mb - 0.00 in0.0 mm 0.00 in0.0 mm
03:30 AM 55.9°F13.3°C 48.4°F9.1°C 76% 2.3 mph ENE3.7 kmh ENE 3.5 mph5.6 kmh 29.95 in1014.2 mb - 0.00 in0.0 mm 0.00 in0.0 mm
03:35 AM 55.6°F13.1°C 48.5°F9.2°C 77% 1.2 mph NE1.9 kmh NE 2.3 mph3.7 kmh 29.96 in1014.6 mb - 0.00 in0.0 mm 0.00 in0.0 mm
03:40 AM 55.3°F12.9°C 48.6°F9.2°C 78% 2.3 mph NNE3.7 kmh NNE 3.5 mph5.6 kmh 29.96 in1014.6 mb - 0.00 in0.0 mm 0.00 in0.0 mm
03:45 AM 55.1°F12.8°C 48.7°F9.3°C 79% 1.2 mph N1.9 kmh N 3.5 mph5.6 kmh 29.96 in1014.6 mb - 0.00 in0.0 mm 0.00 in0.0 mm
03:50 AM 54.8°F12.7°C 48.4°F9.1°C 79% 1.2 mph NNE1.9 kmh NNE 2.3 mph3.7 kmh 29.96 in1014.6 mb - 0.00 in0.0 mm 0.00 in0.0 mm
03:55 AM 54.6°F12.6°C 48.2°F9.0°C 79% Calm Calm 1.2 mph1.9 kmh 29.97 in1014.9 mb - 0.00 in0.0 mm 0.00 in0.0 mm
04:00 AM 54.2°F12.3°C 48.2°F9.0°C 80% 1.2 mph NNW1.9 kmh NNW 3.5 mph5.6 kmh 29.96 in1014.6 mb - 0.00 in0.0 mm 0.00 in0.0 mm
04:10 AM 53.5°F11.9°C 47.9°F8.8°C 81% 1.2 mph NNW1.9 kmh NNW 2.3 mph3.7 kmh 29.97 in1014.9 mb - 0.00 in0.0 mm 0.00 in0.0 mm
04:15 AM 53.2°F11.8°C 47.9°F8.8°C 82% 1.2 mph NW1.9 kmh NW 2.3 mph3.7 kmh 29.97 in1014.9 mb - 0.00 in0.0 mm 0.00 in0.0 mm
04:20 AM 53.1°F11.7°C 48.1°F8.9°C 83% Calm Calm -- 29.97 in1014.9 mb - 0.00 in0.0 mm 0.00 in0.0 mm
04:25 AM 53.0°F11.7°C 48.3°F9.1°C 84% 1.2 mph NE1.9 kmh NE 2.3 mph3.7 kmh 29.97 in1014.9 mb - 0.00 in0.0 mm 0.00 in0.0 mm
04:30 AM 52.9°F11.6°C 48.2°F9.0°C 84% 1.2 mph NE1.9 kmh NE 2.3 mph3.7 kmh 29.97 in1014.9 mb - 0.00 in0.0 mm 0.00 in0.0 mm
04:35 AM 52.8°F11.6°C 48.1°F8.9°C 84% 1.2 mph N1.9 kmh N 3.5 mph5.6 kmh 29.98 in1015.2 mb - 0.00 in0.0 mm 0.00 in0.0 mm
04:40 AM 52.7°F11.5°C 48.0°F8.9°C 84% 1.2 mph N1.9 kmh N 2.3 mph3.7 kmh 29.98 in1015.2 mb - 0.00 in0.0 mm 0.00 in0.0 mm
04:45 AM 52.6°F11.4°C 48.2°F9.0°C 85% 1.2 mph N1.9 kmh N 2.3 mph3.7 kmh 29.97 in1014.9 mb - 0.00 in0.0 mm 0.00 in0.0 mm
04:50 AM 52.4°F11.3°C 47.7°F8.7°C 84% 1.2 mph N1.9 kmh N 2.3 mph3.7 kmh 29.98 in1015.2 mb - 0.00 in0.0 mm 0.00 in0.0 mm
04:55 AM 52.3°F11.3°C 47.9°F8.8°C 85% 2.3 mph N3.7 kmh N 2.3 mph3.7 kmh 29.97 in1014.9 mb - 0.00 in0.0 mm 0.00 in0.0 mm
05:00 AM 52.1°F11.2°C 48.1°F8.9°C 86% 2.3 mph NW3.7 kmh NW 3.5 mph5.6 kmh 29.97 in1014.9 mb - 0.00 in0.0 mm 0.00 in0.0 mm
05:10 AM 52.3°F11.3°C 48.2°F9.0°C 86% 1.2 mph NNE1.9 kmh NNE 3.5 mph5.6 kmh 29.98 in1015.2 mb - 0.00 in0.0 mm 0.00 in0.0 mm
05:15 AM 52.2°F11.2°C 48.1°F8.9°C 86% 1.2 mph N1.9 kmh N 2.3 mph3.7 kmh 29.98 in1015.2 mb - 0.00 in0.0 mm 0.00 in0.0 mm
05:20 AM 52.2°F11.2°C 48.1°F8.9°C 86% 2.3 mph NNW3.7 kmh NNW 3.5 mph5.6 kmh 29.99 in1015.6 mb - 0.00 in0.0 mm 0.00 in0.0 mm
05:25 AM 52.1°F11.2°C 48.0°F8.9°C 86% 1.2 mph NW1.9 kmh NW 2.3 mph3.7 kmh 29.99 in1015.6 mb - 0.00 in0.0 mm 0.00 in0.0 mm
05:30 AM 51.9°F11.1°C 47.9°F8.8°C 86% 1.2 mph NNW1.9 kmh NNW 3.5 mph5.6 kmh 29.99 in1015.6 mb - 0.00 in0.0 mm 0.00 in0.0 mm
05:35 AM 51.8°F11.0°C 48.1°F8.9°C 87% 2.3 mph N3.7 kmh N 3.5 mph5.6 kmh 29.99 in1015.6 mb - 0.00 in0.0 mm 0.00 in0.0 mm
05:40 AM 51.6°F10.9°C 47.9°F8.8°C 87% 1.2 mph NNE1.9 kmh NNE 4.6 mph7.4 kmh 30.00 in1015.9 mb - 0.00 in0.0 mm 0.00 in0.0 mm
05:45 AM 51.6°F10.9°C 47.9°F8.8°C 87% 1.2 mph NE1.9 kmh NE 2.3 mph3.7 kmh 30.00 in1015.9 mb - 0.00 in0.0 mm 0.00 in0.0 mm
05:50 AM 51.5°F10.8°C 48.1°F8.9°C 88% 1.2 mph NE1.9 kmh NE 2.3 mph3.7 kmh 30.00 in1015.9 mb - 0.00 in0.0 mm 0.00 in0.0 mm
05:55 AM 51.4°F10.8°C 48.0°F8.9°C 88% 1.2 mph NE1.9 kmh NE 1.2 mph1.9 kmh 30.00 in1015.9 mb - 0.00 in0.0 mm 0.00 in0.0 mm
06:00 AM 51.4°F10.8°C 48.0°F8.9°C 88% 1.2 mph NE1.9 kmh NE 3.5 mph5.6 kmh 30.00 in1015.9 mb - 0.00 in0.0 mm 0.00 in0.0 mm
06:10 AM 51.3°F10.7°C 47.9°F8.8°C 88% 1.2 mph NNW1.9 kmh NNW 3.5 mph5.6 kmh 30.00 in1015.9 mb - 0.00 in0.0 mm 0.00 in0.0 mm
06:15 AM 51.4°F10.8°C 48.0°F8.9°C 88% Calm Calm -- 30.00 in1015.9 mb - 0.00 in0.0 mm 0.00 in0.0 mm
06:20 AM 51.5°F10.8°C 48.4°F9.1°C 89% 1.2 mph NW1.9 kmh NW 1.2 mph1.9 kmh 30.00 in1015.9 mb - 0.00 in0.0 mm 0.00 in0.0 mm
06:25 AM 51.7°F10.9°C 48.6°F9.2°C 89% Calm Calm -- 30.01 in1016.3 mb - 0.00 in0.0 mm 0.00 in0.0 mm
06:30 AM 52.0°F11.1°C 48.9°F9.4°C 89% Calm Calm 1.2 mph1.9 kmh 30.01 in1016.3 mb - 0.00 in0.0 mm 0.00 in0.0 mm
06:35 AM 52.2°F11.2°C 48.8°F9.3°C 88% 1.2 mph NW1.9 kmh NW 2.3 mph3.7 kmh 30.01 in1016.3 mb - 0.00 in0.0 mm 0.00 in0.0 mm
06:40 AM 52.5°F11.4°C 49.0°F9.4°C 88% 1.2 mph NW1.9 kmh NW 2.3 mph3.7 kmh 30.02 in1016.6 mb - 0.00 in0.0 mm 0.00 in0.0 mm
06:45 AM 52.8°F11.6°C 49.3°F9.6°C 88% 1.2 mph NW1.9 kmh NW 3.5 mph5.6 kmh 30.02 in1016.6 mb - 0.00 in0.0 mm 0.00 in0.0 mm
06:55 AM 53.5°F11.9°C 49.7°F9.8°C 87% 1.2 mph NNW1.9 kmh NNW 2.3 mph3.7 kmh 30.02 in1016.6 mb - 0.00 in0.0 mm 0.00 in0.0 mm
07:00 AM 53.7°F12.1°C 49.6°F9.8°C 86% 1.2 mph NNW1.9 kmh NNW 2.3 mph3.7 kmh 30.03 in1016.9 mb - 0.00 in0.0 mm 0.00 in0.0 mm
07:10 AM 54.3°F12.4°C 49.9°F9.9°C 85% 2.3 mph NE3.7 kmh NE 3.5 mph5.6 kmh 30.03 in1016.9 mb - 0.00 in0.0 mm 0.00 in0.0 mm
07:15 AM 54.4°F12.4°C 50.0°F10.0°C 85% 2.3 mph N3.7 kmh N 3.5 mph5.6 kmh 30.03 in1016.9 mb - 0.00 in0.0 mm 0.00 in0.0 mm
07:20 AM 54.6°F12.6°C 49.8°F9.9°C 84% 2.3 mph NNE3.7 kmh NNE 4.6 mph7.4 kmh 30.03 in1016.9 mb - 0.00 in0.0 mm 0.00 in0.0 mm
07:30 AM 54.8°F12.7°C 50.1°F10.1°C 84% 3.5 mph NE5.6 kmh NE 4.6 mph7.4 kmh 30.04 in1017.3 mb - 0.00 in0.0 mm 0.00 in0.0 mm
07:35 AM 55.0°F12.8°C 50.3°F10.2°C 84% 1.2 mph NE1.9 kmh NE 2.3 mph3.7 kmh 30.04 in1017.3 mb - 0.00 in0.0 mm 0.00 in0.0 mm
07:40 AM 55.3°F12.9°C 50.2°F10.1°C 83% 3.5 mph NW5.6 kmh NW 3.5 mph5.6 kmh 30.04 in1017.3 mb - 0.00 in0.0 mm 0.00 in0.0 mm
07:45 AM 55.5°F13.1°C 50.5°F10.3°C 83% 1.2 mph NNW1.9 kmh NNW 3.5 mph5.6 kmh 30.05 in1017.6 mb - 0.00 in0.0 mm 0.00 in0.0 mm
07:50 AM 55.9°F13.3°C 50.5°F10.3°C 82% 3.5 mph NW5.6 kmh NW 5.8 mph9.3 kmh 30.05 in1017.6 mb - 0.00 in0.0 mm 0.00 in0.0 mm
07:55 AM 56.1°F13.4°C 50.7°F10.4°C 82% 2.3 mph NNW3.7 kmh NNW 3.5 mph5.6 kmh 30.05 in1017.6 mb - 0.00 in0.0 mm 0.00 in0.0 mm
08:00 AM 56.3°F13.5°C 50.5°F10.3°C 81% 2.3 mph NNE3.7 kmh NNE 3.5 mph5.6 kmh 30.05 in1017.6 mb - 0.00 in0.0 mm 0.00 in0.0 mm
08:10 AM 56.7°F13.7°C 50.9°F10.5°C 81% 1.2 mph NNW1.9 kmh NNW 3.5 mph5.6 kmh 30.05 in1017.6 mb - 0.00 in0.0 mm 0.00 in0.0 mm
08:15 AM 57.0°F13.9°C 51.2°F10.7°C 81% 1.2 mph NW1.9 kmh NW 2.3 mph3.7 kmh 30.05 in1017.6 mb - 0.00 in0.0 mm 0.00 in0.0 mm
08:20 AM 57.3°F14.1°C 51.2°F10.7°C 80% 2.3 mph NNW3.7 kmh NNW 4.6 mph7.4 kmh 30.05 in1017.6 mb - 0.00 in0.0 mm 0.00 in0.0 mm
08:25 AM 57.5°F14.2°C 51.0°F10.6°C 79% 2.3 mph NE3.7 kmh NE 3.5 mph5.6 kmh 30.05 in1017.6 mb - 0.00 in0.0 mm 0.00 in0.0 mm
08:30 AM 57.7°F14.3°C 51.3°F10.7°C 79% 1.2 mph NNE1.9 kmh NNE 3.5 mph5.6 kmh 30.05 in1017.6 mb - 0.00 in0.0 mm 0.00 in0.0 mm
08:35 AM 58.0°F14.4°C 51.5°F10.8°C 79% 1.2 mph NW1.9 kmh NW 2.3 mph3.7 kmh 30.05 in1017.6 mb - 0.00 in0.0 mm 0.00 in0.0 mm
08:40 AM 58.2°F14.6°C 51.8°F11.0°C 79% 1.2 mph NW1.9 kmh NW 3.5 mph5.6 kmh 30.05 in1017.6 mb - 0.00 in0.0 mm 0.00 in0.0 mm
08:45 AM 58.5°F14.7°C 51.3°F10.7°C 77% 1.2 mph NE1.9 kmh NE 2.3 mph3.7 kmh 30.05 in1017.6 mb - 0.00 in0.0 mm 0.00 in0.0 mm
08:50 AM 58.6°F14.8°C 51.4°F10.8°C 77% 2.3 mph N3.7 kmh N 4.6 mph7.4 kmh 30.05 in1017.6 mb - 0.00 in0.0 mm 0.00 in0.0 mm
08:55 AM 58.6°F14.8°C 51.4°F10.8°C 77% 2.3 mph NE3.7 kmh NE 3.5 mph5.6 kmh 30.06 in1017.9 mb - 0.00 in0.0 mm 0.00 in0.0 mm
09:00 AM 58.3°F14.6°C 51.4°F10.8°C 78% 1.2 mph NE1.9 kmh NE 2.3 mph3.7 kmh 30.06 in1017.9 mb - 0.00 in0.0 mm 0.00 in0.0 mm
09:10 AM 58.4°F14.7°C 51.6°F10.9°C 78% 3.5 mph NNE5.6 kmh NNE 3.5 mph5.6 kmh 30.06 in1017.9 mb - 0.00 in0.0 mm 0.00 in0.0 mm
09:15 AM 58.2°F14.6°C 51.4°F10.8°C 78% 3.5 mph N5.6 kmh N 8.1 mph13.0 kmh 30.07 in1018.3 mb - 0.00 in0.0 mm 0.00 in0.0 mm
09:20 AM 57.8°F14.3°C 51.3°F10.7°C 79% 2.3 mph NE3.7 kmh NE 4.6 mph7.4 kmh 30.07 in1018.3 mb - 0.00 in0.0 mm 0.00 in0.0 mm
09:25 AM 57.7°F14.3°C 51.3°F10.7°C 79% 3.5 mph NE5.6 kmh NE 4.6 mph7.4 kmh 30.07 in1018.3 mb - 0.00 in0.0 mm 0.00 in0.0 mm
09:30 AM 58.0°F14.4°C 51.9°F11.1°C 80% 2.3 mph NNW3.7 kmh NNW 3.5 mph5.6 kmh 30.07 in1018.3 mb - 0.00 in0.0 mm 0.00 in0.0 mm
09:35 AM 58.4°F14.7°C 52.0°F11.1°C 79% 2.3 mph ENE3.7 kmh ENE 2.3 mph3.7 kmh 30.07 in1018.3 mb - 0.00 in0.0 mm 0.00 in0.0 mm
09:40 AM 58.7°F14.8°C 51.5°F10.8°C 77% 4.6 mph NE7.4 kmh NE 6.9 mph11.1 kmh 30.08 in1018.6 mb - 0.00 in0.0 mm 0.00 in0.0 mm
09:45 AM 58.5°F14.7°C 51.7°F10.9°C 78% 3.5 mph N5.6 kmh N 8.1 mph13.0 kmh 30.07 in1018.3 mb - 0.00 in0.0 mm 0.00 in0.0 mm
09:50 AM 58.4°F14.7°C 51.9°F11.1°C 79% 2.3 mph NE3.7 kmh NE 4.6 mph7.4 kmh 30.08 in1018.6 mb - 0.00 in0.0 mm 0.00 in0.0 mm
09:55 AM 59.0°F15.0°C 52.1°F11.2°C 78% 2.3 mph N3.7 kmh N 2.3 mph3.7 kmh 30.07 in1018.3 mb - 0.00 in0.0 mm 0.00 in0.0 mm
10:00 AM 59.2°F15.1°C 51.6°F10.9°C 76% 4.6 mph E7.4 kmh E 4.6 mph7.4 kmh 30.07 in1018.3 mb - 0.00 in0.0 mm 0.00 in0.0 mm
10:10 AM 59.1°F15.1°C 51.6°F10.9°C 76% 3.5 mph NE5.6 kmh NE 5.8 mph9.3 kmh 30.08 in1018.6 mb - 0.00 in0.0 mm 0.00 in0.0 mm
10:15 AM 58.9°F14.9°C 51.7°F10.9°C 77% 3.5 mph N5.6 kmh N 4.6 mph7.4 kmh 30.08 in1018.6 mb - 0.00 in0.0 mm 0.00 in0.0 mm
10:20 AM 58.9°F14.9°C 51.3°F10.7°C 76% 3.5 mph NE5.6 kmh NE 6.9 mph11.1 kmh 30.08 in1018.6 mb - 0.00 in0.0 mm 0.00 in0.0 mm
10:25 AM 58.7°F14.8°C 51.5°F10.8°C 77% 2.3 mph NW3.7 kmh NW 4.6 mph7.4 kmh 30.08 in1018.6 mb - 0.00 in0.0 mm 0.00 in0.0 mm
10:30 AM 59.1°F15.1°C 51.9°F11.1°C 77% 4.6 mph NW7.4 kmh NW 5.8 mph9.3 kmh 30.09 in1019.0 mb - 0.00 in0.0 mm 0.00 in0.0 mm
10:35 AM 59.1°F15.1°C 51.5°F10.8°C 76% 4.6 mph N7.4 kmh N 4.6 mph7.4 kmh 30.09 in1019.0 mb - 0.00 in0.0 mm 0.00 in0.0 mm
10:40 AM 59.1°F15.1°C 51.5°F10.8°C 76% 5.8 mph NW9.3 kmh NW 8.1 mph13.0 kmh 30.09 in1019.0 mb - 0.00 in0.0 mm 0.00 in0.0 mm
10:45 AM 59.4°F15.2°C 52.2°F11.2°C 77% 3.5 mph NE5.6 kmh NE 8.1 mph13.0 kmh 30.09 in1019.0 mb - 0.00 in0.0 mm 0.00 in0.0 mm
10:50 AM 58.9°F14.9°C 51.4°F10.8°C 76% 4.6 mph NE7.4 kmh NE 5.8 mph9.3 kmh 30.09 in1019.0 mb - 0.00 in0.0 mm 0.00 in0.0 mm
10:55 AM 59.0°F15.0°C 52.1°F11.2°C 78% 5.8 mph NE9.3 kmh NE 9.2 mph14.8 kmh 30.10 in1019.3 mb - 0.00 in0.0 mm 0.00 in0.0 mm
11:00 AM 58.6°F14.8°C 51.8°F11.0°C 78% 2.3 mph NE3.7 kmh NE 4.6 mph7.4 kmh 30.09 in1019.0 mb - 0.00 in0.0 mm 0.00 in0.0 mm
11:10 AM 58.7°F14.8°C 51.5°F10.8°C 77% 6.9 mph NE11.1 kmh NE 9.2 mph14.8 kmh 30.10 in1019.3 mb - 0.00 in0.0 mm 0.00 in0.0 mm
11:15 AM 58.9°F14.9°C 52.1°F11.2°C 78% 3.5 mph NE5.6 kmh NE 4.6 mph7.4 kmh 30.09 in1019.0 mb - 0.00 in0.0 mm 0.00 in0.0 mm
11:20 AM 59.1°F15.1°C 51.9°F11.1°C 77% 3.5 mph N5.6 kmh N 5.8 mph9.3 kmh 30.10 in1019.3 mb - 0.00 in0.0 mm 0.00 in0.0 mm
11:25 AM 59.5°F15.3°C 52.3°F11.3°C 77% 3.5 mph ENE5.6 kmh ENE 9.2 mph14.8 kmh 30.10 in1019.3 mb - 0.00 in0.0 mm 0.00 in0.0 mm
11:30 AM 59.2°F15.1°C 51.6°F10.9°C 76% 2.3 mph NNE3.7 kmh NNE 4.6 mph7.4 kmh 30.10 in1019.3 mb - 0.00 in0.0 mm 0.00 in0.0 mm
11:35 AM 58.8°F14.9°C 51.3°F10.7°C 76% 5.8 mph NE9.3 kmh NE 6.9 mph11.1 kmh 30.10 in1019.3 mb - 0.00 in0.0 mm 0.00 in0.0 mm
11:40 AM 58.7°F14.8°C 51.8°F11.0°C 78% 4.6 mph ENE7.4 kmh ENE 4.6 mph7.4 kmh 30.10 in1019.3 mb - 0.00 in0.0 mm 0.00 in0.0 mm
11:45 AM 58.7°F14.8°C 51.5°F10.8°C 77% 4.6 mph NE7.4 kmh NE 10.4 mph16.7 kmh 30.10 in1019.3 mb - 0.00 in0.0 mm 0.00 in0.0 mm
11:50 AM 58.7°F14.8°C 51.2°F10.7°C 76% 6.9 mph NE11.1 kmh NE 15.0 mph24.1 kmh 30.11 in1019.6 mb - 0.00 in0.0 mm 0.00 in0.0 mm
11:55 AM 58.6°F14.8°C 51.7°F10.9°C 78% 3.5 mph NE5.6 kmh NE 9.2 mph14.8 kmh 30.11 in1019.6 mb - 0.00 in0.0 mm 0.00 in0.0 mm
12:00 PM 58.3°F14.6°C 51.1°F10.6°C 77% 3.5 mph N5.6 kmh N 3.5 mph5.6 kmh 30.11 in1019.6 mb - 0.00 in0.0 mm 0.00 in0.0 mm
12:10 PM 58.4°F14.7°C 50.9°F10.5°C 76% 6.9 mph NE11.1 kmh NE 13.8 mph22.2 kmh 30.12 in1020.0 mb - 0.00 in0.0 mm 0.00 in0.0 mm
12:15 PM 57.5°F14.2°C 50.3°F10.2°C 77% 5.8 mph NE9.3 kmh NE 13.8 mph22.2 kmh 30.12 in1020.0 mb - 0.00 in0.0 mm 0.00 in0.0 mm
12:20 PM 57.2°F14.0°C 50.7°F10.4°C 79% 4.6 mph NE7.4 kmh NE 8.1 mph13.0 kmh 30.12 in1020.0 mb - 0.00 in0.0 mm 0.00 in0.0 mm
12:25 PM 57.4°F14.1°C 50.9°F10.5°C 79% 3.5 mph N5.6 kmh N 5.8 mph9.3 kmh 30.12 in1020.0 mb - 0.00 in0.0 mm 0.00 in0.0 mm
12:30 PM 57.5°F14.2°C 50.7°F10.4°C 78% 4.6 mph NNW7.4 kmh NNW 9.2 mph14.8 kmh 30.12 in1020.0 mb - 0.00 in0.0 mm 0.00 in0.0 mm
12:35 PM 57.9°F14.4°C 51.5°F10.8°C 79% 5.8 mph N9.3 kmh N 8.1 mph13.0 kmh 30.12 in1020.0 mb - 0.00 in0.0 mm 0.00 in0.0 mm
12:40 PM 58.2°F14.6°C 51.4°F10.8°C 78% 3.5 mph NNW5.6 kmh NNW 4.6 mph7.4 kmh 30.12 in1020.0 mb - 0.00 in0.0 mm 0.00 in0.0 mm
12:45 PM 58.3°F14.6°C 51.1°F10.6°C 77% 5.8 mph NE9.3 kmh NE 11.5 mph18.5 kmh 30.12 in1020.0 mb - 0.00 in0.0 mm 0.00 in0.0 mm
12:50 PM 58.4°F14.7°C 51.6°F10.9°C 78% 4.6 mph NE7.4 kmh NE 8.1 mph13.0 kmh 30.12 in1020.0 mb - 0.00 in0.0 mm 0.00 in0.0 mm
12:55 PM 58.9°F14.9°C 51.7°F10.9°C 77% 5.8 mph NE9.3 kmh NE 11.5 mph18.5 kmh 30.12 in1020.0 mb - 0.00 in0.0 mm 0.00 in0.0 mm
01:00 PM 58.8°F14.9°C 51.3°F10.7°C 76% 4.6 mph N7.4 kmh N 6.9 mph11.1 kmh 30.12 in1020.0 mb - 0.00 in0.0 mm 0.00 in0.0 mm
01:10 PM 58.4°F14.7°C 50.5°F10.3°C 75% 6.9 mph NE11.1 kmh NE 8.1 mph13.0 kmh 30.12 in1020.0 mb - 0.00 in0.0 mm 0.00 in0.0 mm
01:15 PM 58.3°F14.6°C 51.5°F10.8°C 78% 2.3 mph NNE3.7 kmh NNE 3.5 mph5.6 kmh 30.12 in1020.0 mb - 0.00 in0.0 mm 0.00 in0.0 mm
01:20 PM 58.9°F14.9°C 51.7°F10.9°C 77% 4.6 mph NNW7.4 kmh NNW 6.9 mph11.1 kmh 30.12 in1020.0 mb - 0.00 in0.0 mm 0.00 in0.0 mm
01:25 PM 59.7°F15.4°C 52.1°F11.2°C 76% 3.5 mph NW5.6 kmh NW 5.8 mph9.3 kmh 30.12 in1020.0 mb - 0.00 in0.0 mm 0.00 in0.0 mm
01:30 PM 60.5°F15.8°C 52.5°F11.4°C 75% 2.3 mph N3.7 kmh N 3.5 mph5.6 kmh 30.12 in1020.0 mb - 0.00 in0.0 mm 0.00 in0.0 mm
01:35 PM 61.4°F16.3°C 52.7°F11.5°C 73% 3.5 mph N5.6 kmh N 6.9 mph11.1 kmh 30.12 in1020.0 mb - 0.00 in0.0 mm 0.00 in0.0 mm
01:40 PM 61.7°F16.5°C 52.6°F11.4°C 72% 2.3 mph NW3.7 kmh NW 3.5 mph5.6 kmh 30.11 in1019.6 mb - 0.00 in0.0 mm 0.00 in0.0 mm
01:45 PM 62.2°F16.8°C 52.3°F11.3°C 70% 3.5 mph ENE5.6 kmh ENE 11.5 mph18.5 kmh 30.11 in1019.6 mb - 0.00 in0.0 mm 0.00 in0.0 mm
01:50 PM 61.7°F16.5°C 52.2°F11.2°C 71% 5.8 mph NE9.3 kmh NE 8.1 mph13.0 kmh 30.11 in1019.6 mb - 0.00 in0.0 mm 0.00 in0.0 mm
01:55 PM 61.8°F16.6°C 52.7°F11.5°C 72% 3.5 mph NNE5.6 kmh NNE 4.6 mph7.4 kmh 30.11 in1019.6 mb - 0.00 in0.0 mm 0.00 in0.0 mm
02:00 PM 62.5°F16.9°C 53.0°F11.7°C 71% 2.3 mph NNW3.7 kmh NNW 3.5 mph5.6 kmh 30.11 in1019.6 mb - 0.00 in0.0 mm 0.00 in0.0 mm
02:10 PM 63.6°F17.6°C 53.3°F11.8°C 69% 3.5 mph ENE5.6 kmh ENE 3.5 mph5.6 kmh 30.11 in1019.6 mb - 0.00 in0.0 mm 0.00 in0.0 mm
02:15 PM 64.1°F17.8°C 53.7°F12.1°C 69% 3.5 mph NE5.6 kmh NE 4.6 mph7.4 kmh 30.11 in1019.6 mb - 0.00 in0.0 mm 0.00 in0.0 mm
02:20 PM 64.2°F17.9°C 53.0°F11.7°C 67% 2.3 mph ENE3.7 kmh ENE 4.6 mph7.4 kmh 30.11 in1019.6 mb - 0.00 in0.0 mm 0.00 in0.0 mm
02:25 PM 63.8°F17.7°C 53.0°F11.7°C 68% 3.5 mph N5.6 kmh N 4.6 mph7.4 kmh 30.11 in1019.6 mb - 0.00 in0.0 mm 0.00 in0.0 mm
02:30 PM 64.5°F18.1°C 54.1°F12.3°C 69% 2.3 mph NNE3.7 kmh NNE 4.6 mph7.4 kmh 30.10 in1019.3 mb - 0.00 in0.0 mm 0.00 in0.0 mm
02:35 PM 64.8°F18.2°C 53.6°F12.0°C 67% 4.6 mph ENE7.4 kmh ENE 8.1 mph13.0 kmh 30.10 in1019.3 mb - 0.00 in0.0 mm 0.00 in0.0 mm
02:40 PM 64.8°F18.2°C 53.6°F12.0°C 67% 5.8 mph NE9.3 kmh NE 9.2 mph14.8 kmh 30.10 in1019.3 mb - 0.00 in0.0 mm 0.00 in0.0 mm
02:45 PM 64.7°F18.2°C 53.5°F11.9°C 67% 3.5 mph NE5.6 kmh NE 8.1 mph13.0 kmh 30.10 in1019.3 mb - 0.00 in0.0 mm 0.00 in0.0 mm
02:50 PM 64.6°F18.1°C 53.0°F11.7°C 66% Calm Calm 2.3 mph3.7 kmh 30.10 in1019.3 mb - 0.00 in0.0 mm 0.00 in0.0 mm
02:55 PM 65.2°F18.4°C 54.0°F12.2°C 67% 2.3 mph NE3.7 kmh NE 4.6 mph7.4 kmh 30.10 in1019.3 mb - 0.00 in0.0 mm 0.00 in0.0 mm
03:00 PM 65.2°F18.4°C 54.0°F12.2°C 67% 2.3 mph E3.7 kmh E 4.6 mph7.4 kmh 30.10 in1019.3 mb - 0.00 in0.0 mm 0.00 in0.0 mm
03:10 PM 64.3°F17.9°C 53.1°F11.7°C 67% 2.3 mph NE3.7 kmh NE 3.5 mph5.6 kmh 30.11 in1019.6 mb - 0.00 in0.0 mm 0.00 in0.0 mm
03:15 PM 63.8°F17.7°C 52.7°F11.5°C 67% 6.9 mph NE11.1 kmh NE 9.2 mph14.8 kmh 30.11 in1019.6 mb - 0.00 in0.0 mm 0.00 in0.0 mm
03:20 PM 63.0°F17.2°C 52.7°F11.5°C 69% 5.8 mph ENE9.3 kmh ENE 8.1 mph13.0 kmh 30.11 in1019.6 mb - 0.00 in0.0 mm 0.00 in0.0 mm
03:25 PM 62.7°F17.1°C 52.4°F11.3°C 69% 4.6 mph N7.4 kmh N 8.1 mph13.0 kmh 30.11 in1019.6 mb - 0.00 in0.0 mm 0.00 in0.0 mm
03:30 PM 62.4°F16.9°C 52.1°F11.2°C 69% 6.9 mph NE11.1 kmh NE 9.2 mph14.8 kmh 30.12 in1020.0 mb - 0.00 in0.0 mm 0.00 in0.0 mm
03:35 PM 62.5°F16.9°C 52.6°F11.4°C 70% 4.6 mph ENE7.4 kmh ENE 10.4 mph16.7 kmh 30.12 in1020.0 mb - 0.00 in0.0 mm 0.00 in0.0 mm
03:40 PM 62.4°F16.9°C 52.1°F11.2°C 69% 4.6 mph N7.4 kmh N 6.9 mph11.1 kmh 30.12 in1020.0 mb - 0.00 in0.0 mm 0.00 in0.0 mm
03:45 PM 62.1°F16.7°C 51.8°F11.0°C 69% 2.3 mph N3.7 kmh N 3.5 mph5.6 kmh 30.12 in1020.0 mb - 0.00 in0.0 mm 0.00 in0.0 mm
03:50 PM 61.9°F16.6°C 51.6°F10.9°C 69% 3.5 mph NNW5.6 kmh NNW 3.5 mph5.6 kmh 30.12 in1020.0 mb - 0.00 in0.0 mm 0.00 in0.0 mm
03:55 PM 61.8°F16.6°C 51.9°F11.1°C 70% 3.5 mph N5.6 kmh N 4.6 mph7.4 kmh 30.12 in1020.0 mb - 0.00 in0.0 mm 0.00 in0.0 mm
04:00 PM 61.7°F16.5°C 52.2°F11.2°C 71% 2.3 mph NNW3.7 kmh NNW 3.5 mph5.6 kmh 30.12 in1020.0 mb - 0.00 in0.0 mm 0.00 in0.0 mm
04:10 PM 61.8°F16.6°C 51.5°F10.8°C 69% 6.9 mph ENE11.1 kmh ENE 10.4 mph16.7 kmh 30.13 in1020.3 mb - 0.00 in0.0 mm 0.00 in0.0 mm
04:15 PM 61.7°F16.5°C 51.8°F11.0°C 70% 3.5 mph N5.6 kmh N 5.8 mph9.3 kmh 30.13 in1020.3 mb - 0.00 in0.0 mm 0.00 in0.0 mm
04:20 PM 61.9°F16.6°C 52.4°F11.3°C 71% 3.5 mph NE5.6 kmh NE 5.8 mph9.3 kmh 30.12 in1020.0 mb - 0.00 in0.0 mm 0.00 in0.0 mm
04:25 PM 62.2°F16.8°C 52.3°F11.3°C 70% 4.6 mph NE7.4 kmh NE 10.4 mph16.7 kmh 30.12 in1020.0 mb - 0.00 in0.0 mm 0.00 in0.0 mm
04:30 PM 62.2°F16.8°C 51.9°F11.1°C 69% 4.6 mph NE7.4 kmh NE 6.9 mph11.1 kmh 30.13 in1020.3 mb - 0.00 in0.0 mm 0.00 in0.0 mm
04:35 PM 62.2°F16.8°C 52.3°F11.3°C 70% 2.3 mph NNW3.7 kmh NNW 4.6 mph7.4 kmh 30.13 in1020.3 mb - 0.00 in0.0 mm 0.00 in0.0 mm
04:40 PM 62.1°F16.7°C 52.6°F11.4°C 71% 2.3 mph NE3.7 kmh NE 4.6 mph7.4 kmh 30.13 in1020.3 mb - 0.00 in0.0 mm 0.00 in0.0 mm
04:45 PM 62.1°F16.7°C 52.2°F11.2°C 70% 3.5 mph NE5.6 kmh NE 10.4 mph16.7 kmh 30.14 in1020.7 mb - 0.00 in0.0 mm 0.00 in0.0 mm
04:50 PM 61.6°F16.4°C 52.1°F11.2°C 71% 3.5 mph NW5.6 kmh NW 4.6 mph7.4 kmh 30.14 in1020.7 mb - 0.00 in0.0 mm 0.00 in0.0 mm
04:55 PM 61.3°F16.3°C 51.8°F11.0°C 71% 3.5 mph NNW5.6 kmh NNW 6.9 mph11.1 kmh 30.13 in1020.3 mb - 0.00 in0.0 mm 0.00 in0.0 mm
05:00 PM 60.7°F15.9°C 51.2°F10.7°C 71% 3.5 mph NNE5.6 kmh NNE 5.8 mph9.3 kmh 30.14 in1020.7 mb - 0.00 in0.0 mm 0.00 in0.0 mm
05:10 PM 60.3°F15.7°C 51.6°F10.9°C 73% 2.3 mph NW3.7 kmh NW 3.5 mph5.6 kmh 30.14 in1020.7 mb - 0.00 in0.0 mm 0.00 in0.0 mm
05:15 PM 60.1°F15.6°C 51.0°F10.6°C 72% 3.5 mph N5.6 kmh N 3.5 mph5.6 kmh 30.13 in1020.3 mb - 0.00 in0.0 mm 0.00 in0.0 mm
05:20 PM 60.1°F15.6°C 51.4°F10.8°C 73% 3.5 mph NNW5.6 kmh NNW 5.8 mph9.3 kmh 30.13 in1020.3 mb - 0.00 in0.0 mm 0.00 in0.0 mm
05:25 PM 60.0°F15.6°C 51.3°F10.7°C 73% 3.5 mph N5.6 kmh N 4.6 mph7.4 kmh 30.13 in1020.3 mb - 0.00 in0.0 mm 0.00 in0.0 mm
05:30 PM 59.5°F15.3°C 50.9°F10.5°C 73% 3.5 mph N5.6 kmh N 5.8 mph9.3 kmh 30.13 in1020.3 mb - 0.00 in0.0 mm 0.00 in0.0 mm
05:35 PM 59.3°F15.2°C 51.0°F10.6°C 74% 2.3 mph NNW3.7 kmh NNW 3.5 mph5.6 kmh 30.14 in1020.7 mb - 0.00 in0.0 mm 0.00 in0.0 mm
05:40 PM 59.3°F15.2°C 51.0°F10.6°C 74% 3.5 mph NNE5.6 kmh NNE 5.8 mph9.3 kmh 30.14 in1020.7 mb - 0.00 in0.0 mm 0.00 in0.0 mm
05:45 PM 59.3°F15.2°C 51.4°F10.8°C 75% 2.3 mph NE3.7 kmh NE 3.5 mph5.6 kmh 30.13 in1020.3 mb - 0.00 in0.0 mm 0.00 in0.0 mm
05:50 PM 59.4°F15.2°C 51.5°F10.8°C 75% 2.3 mph NE3.7 kmh NE 3.5 mph5.6 kmh 30.13 in1020.3 mb - 0.00 in0.0 mm 0.00 in0.0 mm
05:55 PM 59.5°F15.3°C 51.2°F10.7°C 74% 2.3 mph NNE3.7 kmh NNE 4.6 mph7.4 kmh 30.13 in1020.3 mb - 0.00 in0.0 mm 0.00 in0.0 mm
06:00 PM 59.6°F15.3°C 51.3°F10.7°C 74% Calm Calm -- 30.13 in1020.3 mb - 0.00 in0.0 mm 0.00 in0.0 mm
06:10 PM 59.9°F15.5°C 51.6°F10.9°C 74% 1.2 mph NNE1.9 kmh NNE 3.5 mph5.6 kmh 30.12 in1020.0 mb - 0.00 in0.0 mm 0.00 in0.0 mm
06:15 PM 60.0°F15.6°C 51.3°F10.7°C 73% 2.3 mph NNE3.7 kmh NNE 2.3 mph3.7 kmh 30.12 in1020.0 mb - 0.00 in0.0 mm 0.00 in0.0 mm
06:20 PM 60.1°F15.6°C 51.4°F10.8°C 73% Calm Calm -- 30.12 in1020.0 mb - 0.00 in0.0 mm 0.00 in0.0 mm
06:25 PM 60.3°F15.7°C 51.6°F10.9°C 73% Calm Calm 3.5 mph5.6 kmh 30.12 in1020.0 mb - 0.00 in0.0 mm 0.00 in0.0 mm
06:30 PM 60.4°F15.8°C 51.3°F10.7°C 72% 2.3 mph NNW3.7 kmh NNW 5.8 mph9.3 kmh 30.12 in1020.0 mb - 0.00 in0.0 mm 0.00 in0.0 mm
06:35 PM 60.2°F15.7°C 51.1°F10.6°C 72% 2.3 mph NNW3.7 kmh NNW 3.5 mph5.6 kmh 30.12 in1020.0 mb - 0.00 in0.0 mm 0.00 in0.0 mm
06:40 PM 60.1°F15.6°C 51.4°F10.8°C 73% 1.2 mph N1.9 kmh N 3.5 mph5.6 kmh 30.12 in1020.0 mb - 0.00 in0.0 mm 0.00 in0.0 mm
06:45 PM 60.1°F15.6°C 51.4°F10.8°C 73% 2.3 mph NE3.7 kmh NE 4.6 mph7.4 kmh 30.12 in1020.0 mb - 0.00 in0.0 mm 0.00 in0.0 mm
06:50 PM 59.9°F15.5°C 51.2°F10.7°C 73% 2.3 mph NE3.7 kmh NE 3.5 mph5.6 kmh 30.12 in1020.0 mb - 0.00 in0.0 mm 0.00 in0.0 mm
06:55 PM 59.8°F15.4°C 51.5°F10.8°C 74% 2.3 mph N3.7 kmh N 2.3 mph3.7 kmh 30.12 in1020.0 mb - 0.00 in0.0 mm 0.00 in0.0 mm
07:00 PM 59.7°F15.4°C 51.4°F10.8°C 74% 4.6 mph NE7.4 kmh NE 5.8 mph9.3 kmh 30.12 in1020.0 mb - 0.00 in0.0 mm 0.00 in0.0 mm
07:10 PM 59.4°F15.2°C 51.8°F11.0°C 76% 1.2 mph NNE1.9 kmh NNE 4.6 mph7.4 kmh 30.12 in1020.0 mb - 0.00 in0.0 mm 0.00 in0.0 mm
07:15 PM 59.3°F15.2°C 51.7°F10.9°C 76% 2.3 mph NE3.7 kmh NE 6.9 mph11.1 kmh 30.13 in1020.3 mb - 0.00 in0.0 mm 0.00 in0.0 mm
07:20 PM 58.8°F14.9°C 51.2°F10.7°C 76% 4.6 mph NE7.4 kmh NE 9.2 mph14.8 kmh 30.13 in1020.3 mb - 0.00 in0.0 mm 0.00 in0.0 mm
07:25 PM 57.9°F14.4°C 50.8°F10.4°C 77% 3.5 mph N5.6 kmh N 3.5 mph5.6 kmh 30.12 in1020.0 mb - 0.00 in0.0 mm 0.00 in0.0 mm
07:30 PM 57.5°F14.2°C 51.0°F10.6°C 79% 2.3 mph N3.7 kmh N 3.5 mph5.6 kmh 30.12 in1020.0 mb - 0.00 in0.0 mm 0.00 in0.0 mm
07:35 PM 57.3°F14.1°C 50.8°F10.4°C 79% 2.3 mph NE3.7 kmh NE 4.6 mph7.4 kmh 30.12 in1020.0 mb - 0.00 in0.0 mm 0.00 in0.0 mm
07:40 PM 57.2°F14.0°C 51.1°F10.6°C 80% 1.2 mph NE1.9 kmh NE 2.3 mph3.7 kmh 30.12 in1020.0 mb - 0.00 in0.0 mm 0.00 in0.0 mm
07:45 PM 57.1°F13.9°C 51.0°F10.6°C 80% 1.2 mph NE1.9 kmh NE 2.3 mph3.7 kmh 30.11 in1019.6 mb - 0.00 in0.0 mm 0.00 in0.0 mm
07:50 PM 57.1°F13.9°C 51.0°F10.6°C 80% 1.2 mph NE1.9 kmh NE 1.2 mph1.9 kmh 30.11 in1019.6 mb - 0.00 in0.0 mm 0.00 in0.0 mm
07:55 PM 57.1°F13.9°C 51.0°F10.6°C 80% 1.2 mph NE1.9 kmh NE 2.3 mph3.7 kmh 30.11 in1019.6 mb - 0.00 in0.0 mm 0.00 in0.0 mm
08:00 PM 57.1°F13.9°C 51.0°F10.6°C 80% 1.2 mph NE1.9 kmh NE 2.3 mph3.7 kmh 30.11 in1019.6 mb - 0.00 in0.0 mm 0.00 in0.0 mm
08:10 PM 57.1°F13.9°C 51.3°F10.7°C 81% 1.2 mph NE1.9 kmh NE 3.5 mph5.6 kmh 30.10 in1019.3 mb - 0.00 in0.0 mm 0.00 in0.0 mm
08:15 PM 57.1°F13.9°C 51.3°F10.7°C 81% Calm Calm -- 30.10 in1019.3 mb - 0.00 in0.0 mm 0.00 in0.0 mm
08:20 PM 57.1°F13.9°C 51.3°F10.7°C 81% Calm Calm -- 30.09 in1019.0 mb - 0.00 in0.0 mm 0.00 in0.0 mm
08:25 PM 57.0°F13.9°C 51.2°F10.7°C 81% Calm Calm -- 30.09 in1019.0 mb - 0.00 in0.0 mm 0.00 in0.0 mm
08:30 PM 57.0°F13.9°C 51.2°F10.7°C 81% Calm Calm -- 30.09 in1019.0 mb - 0.00 in0.0 mm 0.00 in0.0 mm
08:35 PM 57.0°F13.9°C 51.2°F10.7°C 81% Calm Calm -- 30.09 in1019.0 mb - 0.00 in0.0 mm 0.00 in0.0 mm
08:40 PM 56.9°F13.8°C 51.5°F10.8°C 82% Calm Calm -- 30.09 in1019.0 mb - 0.00 in0.0 mm 0.00 in0.0 mm
08:45 PM 56.8°F13.8°C 51.4°F10.8°C 82% Calm Calm -- 30.09 in1019.0 mb - 0.00 in0.0 mm 0.00 in0.0 mm
08:50 PM 56.6°F13.7°C 51.2°F10.7°C 82% Calm Calm -- 30.09 in1019.0 mb - 0.00 in0.0 mm 0.00 in0.0 mm
08:55 PM 56.4°F13.6°C 51.3°F10.7°C 83% Calm Calm -- 30.09 in1019.0 mb - 0.00 in0.0 mm 0.00 in0.0 mm
09:00 PM 56.3°F13.5°C 51.2°F10.7°C 83% Calm Calm -- 30.10 in1019.3 mb - 0.00 in0.0 mm 0.00 in0.0 mm
09:10 PM 56.1°F13.4°C 51.3°F10.7°C 84% Calm Calm -- 30.09 in1019.0 mb - 0.00 in0.0 mm 0.00 in0.0 mm
09:15 PM 56.0°F13.3°C 51.2°F10.7°C 84% Calm Calm -- 30.09 in1019.0 mb - 0.00 in0.0 mm 0.00 in0.0 mm
09:20 PM 55.8°F13.2°C 51.0°F10.6°C 84% Calm Calm -- 30.10 in1019.3 mb - 0.00 in0.0 mm 0.00 in0.0 mm
09:25 PM 55.6°F13.1°C 51.1°F10.6°C 85% Calm Calm -- 30.10 in1019.3 mb - 0.00 in0.0 mm 0.00 in0.0 mm
09:30 PM 55.4°F13.0°C 51.0°F10.6°C 85% Calm Calm -- 30.11 in1019.6 mb - 0.00 in0.0 mm 0.00 in0.0 mm
09:35 PM 55.1°F12.8°C 50.7°F10.4°C 85% Calm Calm -- 30.11 in1019.6 mb - 0.00 in0.0 mm 0.00 in0.0 mm
09:40 PM 55.0°F12.8°C 50.9°F10.5°C 86% Calm Calm -- 30.12 in1020.0 mb - 0.00 in0.0 mm 0.00 in0.0 mm
09:45 PM 54.8°F12.7°C 50.7°F10.4°C 86% 1.2 mph NE1.9 kmh NE 2.3 mph3.7 kmh 30.12 in1020.0 mb - 0.00 in0.0 mm 0.00 in0.0 mm
09:50 PM 54.7°F12.6°C 50.6°F10.3°C 86% Calm Calm 2.3 mph3.7 kmh 30.13 in1020.3 mb - 0.00 in0.0 mm 0.00 in0.0 mm
09:55 PM 54.6°F12.6°C 50.5°F10.3°C 86% Calm Calm -- 30.13 in1020.3 mb - 0.00 in0.0 mm 0.00 in0.0 mm
10:00 PM 54.5°F12.5°C 50.7°F10.4°C 87% 1.2 mph NE1.9 kmh NE 2.3 mph3.7 kmh 30.14 in1020.7 mb - 0.00 in0.0 mm 0.00 in0.0 mm
10:10 PM 54.4°F12.4°C 50.3°F10.2°C 86% Calm Calm 1.2 mph1.9 kmh 30.14 in1020.7 mb - 0.00 in0.0 mm 0.00 in0.0 mm
10:15 PM 54.4°F12.4°C 50.6°F10.3°C 87% Calm Calm 2.3 mph3.7 kmh 30.14 in1020.7 mb - 0.00 in0.0 mm 0.00 in0.0 mm
10:20 PM 54.3°F12.4°C 50.6°F10.3°C 87% 1.2 mph NE1.9 kmh NE 2.3 mph3.7 kmh 30.14 in1020.7 mb - 0.00 in0.0 mm 0.00 in0.0 mm
10:25 PM 54.4°F12.4°C 50.6°F10.3°C 87% Calm Calm -- 30.13 in1020.3 mb - 0.00 in0.0 mm 0.00 in0.0 mm
10:30 PM 54.3°F12.4°C 50.5°F10.3°C 87% Calm Calm -- 30.13 in1020.3 mb - 0.00 in0.0 mm 0.00 in0.0 mm
10:35 PM 54.2°F12.3°C 50.4°F10.2°C 87% Calm Calm -- 30.13 in1020.3 mb - 0.00 in0.0 mm 0.00 in0.0 mm
10:40 PM 54.1°F12.3°C 50.3°F10.2°C 87% Calm Calm -- 30.13 in1020.3 mb - 0.00 in0.0 mm 0.00 in0.0 mm
10:45 PM 54.0°F12.2°C 50.2°F10.1°C 87% Calm Calm -- 30.12 in1020.0 mb - 0.00 in0.0 mm 0.00 in0.0 mm
10:50 PM 53.9°F12.2°C 50.1°F10.1°C 87% Calm Calm -- 30.12 in1020.0 mb - 0.00 in0.0 mm 0.00 in0.0 mm
10:55 PM 53.7°F12.1°C 49.9°F9.9°C 87% Calm Calm -- 30.13 in1020.3 mb - 0.00 in0.0 mm 0.00 in0.0 mm
11:00 PM 53.6°F12.0°C 50.1°F10.1°C 88% Calm Calm -- 30.13 in1020.3 mb - 0.00 in0.0 mm 0.00 in0.0 mm
11:10 PM 53.5°F11.9°C 50.0°F10.0°C 88% Calm Calm -- 30.13 in1020.3 mb - 0.00 in0.0 mm 0.00 in0.0 mm
11:15 PM 53.6°F12.0°C 50.4°F10.2°C 89% Calm Calm -- 30.13 in1020.3 mb - 0.00 in0.0 mm 0.00 in0.0 mm
11:20 PM 53.7°F12.1°C 50.5°F10.3°C 89% Calm Calm -- 30.13 in1020.3 mb - 0.00 in0.0 mm 0.00 in0.0 mm
11:25 PM 53.7°F12.1°C 50.6°F10.3°C 89% Calm Calm -- 30.13 in1020.3 mb - 0.00 in0.0 mm 0.00 in0.0 mm
11:30 PM 53.9°F12.2°C 50.7°F10.4°C 89% Calm Calm -- 30.13 in1020.3 mb - 0.00 in0.0 mm 0.00 in0.0 mm
11:35 PM 53.9°F12.2°C 50.8°F10.4°C 89% Calm Calm -- 30.13 in1020.3 mb - 0.00 in0.0 mm 0.00 in0.0 mm
11:40 PM 54.0°F12.2°C 50.9°F10.5°C 89% Calm Calm -- 30.13 in1020.3 mb - 0.00 in0.0 mm 0.00 in0.0 mm
11:45 PM 54.2°F12.3°C 51.0°F10.6°C 89% Calm Calm -- 30.12 in1020.0 mb - 0.00 in0.0 mm 0.00 in0.0 mm
11:50 PM 54.3°F12.4°C 51.1°F10.6°C 89% Calm Calm -- 30.12 in1020.0 mb - 0.00 in0.0 mm 0.00 in0.0 mm
11:55 PM 54.3°F12.4°C 50.9°F10.5°C 88% Calm Calm -- 30.11 in1019.6 mb - 0.00 in0.0 mm 0.00 in0.0 mm